createdAt,value
2022-10-19T00:01:25.238Z,14.40
2022-10-19T00:03:58.424Z,14.30
2022-10-19T00:06:28.934Z,14.20
2022-10-19T00:08:59.132Z,14.10
2022-10-19T00:11:31.182Z,14.02
2022-10-19T00:14:00.305Z,13.96
2022-10-19T00:16:31.021Z,13.90
2022-10-19T00:19:01.055Z,13.80
2022-10-19T00:21:29.906Z,13.70
2022-10-19T00:23:58.315Z,13.64
2022-10-19T00:26:27.477Z,13.60
2022-10-19T00:28:56.796Z,13.50
2022-10-19T00:31:25.780Z,13.40
2022-10-19T00:33:55.859Z,13.40
2022-10-19T00:36:26.771Z,13.30
2022-10-19T00:38:56.143Z,13.28
2022-10-19T00:41:26.607Z,13.20
2022-10-19T00:43:58.595Z,13.20
2022-10-19T00:46:28.367Z,13.10
2022-10-19T00:49:01.772Z,13.10
2022-10-19T00:51:33.337Z,13.10
2022-10-19T00:54:05.808Z,13.10
2022-10-19T00:56:37.755Z,13.00
2022-10-19T00:59:07.635Z,13.00
2022-10-19T01:01:36.546Z,12.98
2022-10-19T01:04:05.610Z,12.90
2022-10-19T01:06:35.151Z,12.90
2022-10-19T01:09:03.768Z,12.90
2022-10-19T01:11:40.519Z,12.82
2022-10-19T01:14:22.944Z,12.90
2022-10-19T01:17:00.136Z,12.90
2022-10-19T01:19:50.187Z,12.90
2022-10-19T01:22:30.337Z,12.90
2022-10-19T01:25:14.499Z,12.84
2022-10-19T01:28:03.653Z,12.80
2022-10-19T01:30:45.598Z,12.80
2022-10-19T01:33:28.193Z,12.74
2022-10-19T01:36:06.522Z,12.70
2022-10-19T01:38:42.342Z,12.70
2022-10-19T01:41:17.513Z,12.60
2022-10-19T01:43:55.306Z,12.60
2022-10-19T01:46:31.846Z,12.62
2022-10-19T01:49:04.178Z,12.70
2022-10-19T01:51:35.490Z,12.78
2022-10-19T01:54:13.514Z,12.80
2022-10-19T01:56:44.630Z,12.90
2022-10-19T01:59:14.236Z,13.10
2022-10-19T02:01:46.095Z,13.30
2022-10-19T02:04:21.527Z,13.50
2022-10-19T02:06:50.745Z,13.58
2022-10-19T02:09:19.566Z,13.60
2022-10-19T02:11:51.263Z,13.70
2022-10-19T02:14:27.658Z,13.70
2022-10-19T02:17:03.106Z,13.70
2022-10-19T02:19:31.462Z,13.80
2022-10-19T02:22:00.118Z,13.80
2022-10-19T02:24:28.298Z,13.84
2022-10-19T02:26:57.375Z,13.90
2022-10-19T02:29:26.124Z,13.90
2022-10-19T02:31:54.621Z,13.90
2022-10-19T02:34:23.204Z,13.90
2022-10-19T02:36:52.178Z,13.90
2022-10-19T02:39:20.980Z,13.90
2022-10-19T02:41:55.516Z,13.90
2022-10-19T02:44:27.558Z,13.90
2022-10-19T02:47:02.521Z,13.92
2022-10-19T02:49:34.069Z,14.00
2022-10-19T02:52:06.556Z,14.00
2022-10-19T02:54:35.332Z,14.00
2022-10-19T02:57:13.042Z,13.90
2022-10-19T02:59:41.664Z,13.90
2022-10-19T03:02:10.283Z,13.80
2022-10-19T03:04:38.725Z,13.80
2022-10-19T03:07:07.243Z,13.70
2022-10-19T03:09:35.720Z,13.70
2022-10-19T03:12:06.391Z,13.60
2022-10-19T03:14:35.379Z,13.60
2022-10-19T03:17:04.061Z,13.50
2022-10-19T03:19:33.968Z,13.50
2022-10-19T03:22:02.870Z,13.46
2022-10-19T03:24:31.754Z,13.42
2022-10-19T03:27:00.472Z,13.40
2022-10-19T03:29:29.049Z,13.40
2022-10-19T03:31:57.599Z,13.40
2022-10-19T03:34:26.003Z,13.34
2022-10-19T03:36:56.052Z,13.30
2022-10-19T03:39:24.636Z,13.20
2022-10-19T03:41:53.237Z,13.10
2022-10-19T03:44:21.698Z,13.10
2022-10-19T03:46:50.103Z,13.00
2022-10-19T03:49:18.501Z,12.90
2022-10-19T03:51:47.146Z,12.90
2022-10-19T03:54:16.836Z,12.90
2022-10-19T03:56:45.577Z,12.88
2022-10-19T03:59:15.309Z,12.88
2022-10-19T04:01:45.953Z,12.80
2022-10-19T04:04:16.544Z,12.80
2022-10-19T04:06:48.242Z,12.80
2022-10-19T04:09:18.728Z,12.80
2022-10-19T04:11:47.793Z,12.80
2022-10-19T04:14:26.939Z,12.80
2022-10-19T04:17:01.650Z,12.70
2022-10-19T04:19:30.293Z,12.70
2022-10-19T04:22:01.746Z,12.70
2022-10-19T04:24:30.129Z,12.70
2022-10-19T04:26:58.811Z,12.60
2022-10-19T04:29:29.781Z,12.60
2022-10-19T04:31:59.660Z,12.60
2022-10-19T04:34:28.110Z,12.60
2022-10-19T04:36:58.752Z,12.58
2022-10-19T04:39:27.403Z,12.60
2022-10-19T04:41:58.319Z,12.60
2022-10-19T04:44:27.226Z,12.60
2022-10-19T04:46:56.716Z,12.60
2022-10-19T04:49:25.241Z,12.60
2022-10-19T04:52:02.804Z,12.60
2022-10-19T04:54:33.267Z,12.60
2022-10-19T04:57:01.960Z,12.50
2022-10-19T04:59:30.754Z,12.48
2022-10-19T05:01:59.081Z,12.40
2022-10-19T05:04:27.678Z,12.36
2022-10-19T05:06:57.426Z,12.30
2022-10-19T05:09:26.170Z,12.30
2022-10-19T05:11:54.814Z,12.28
2022-10-19T05:14:24.074Z,12.30
2022-10-19T05:16:52.530Z,12.34
2022-10-19T05:19:20.998Z,12.36
2022-10-19T05:21:51.828Z,12.30
2022-10-19T05:24:20.233Z,12.30
2022-10-19T05:26:51.193Z,12.30
2022-10-19T05:29:19.935Z,12.30
2022-10-19T05:31:48.372Z,12.30
2022-10-19T05:34:16.890Z,12.20
2022-10-19T05:36:45.304Z,12.20
2022-10-19T05:39:16.186Z,12.20
2022-10-19T05:41:45.975Z,12.20
2022-10-19T05:44:17.470Z,12.20
2022-10-19T05:46:46.416Z,12.30
2022-10-19T05:49:16.571Z,12.30
2022-10-19T05:51:45.162Z,12.30
2022-10-19T05:54:14.843Z,12.30
2022-10-19T05:56:44.116Z,12.40
2022-10-19T05:59:15.940Z,12.40
2022-10-19T06:01:44.898Z,12.50
2022-10-19T06:04:14.549Z,12.50
2022-10-19T06:06:43.420Z,12.50
2022-10-19T06:09:12.342Z,12.50
2022-10-19T06:11:41.997Z,12.50
2022-10-19T06:14:14.410Z,12.50
2022-10-19T06:16:45.092Z,12.50
2022-10-19T06:19:13.756Z,12.50
2022-10-19T06:21:45.720Z,12.50
2022-10-19T06:24:14.733Z,12.50
2022-10-19T06:26:43.499Z,12.50
2022-10-19T06:29:12.559Z,12.50
2022-10-19T06:35:03.573Z,12.60
2022-10-19T06:37:32.184Z,12.68
2022-10-19T06:40:04.727Z,12.70
2022-10-19T06:42:38.323Z,12.64
2022-10-19T06:45:09.396Z,12.70
2022-10-19T06:47:38.541Z,12.70
2022-10-19T06:50:08.760Z,12.70
2022-10-19T06:52:37.683Z,12.70
2022-10-19T06:55:08.211Z,12.70
2022-10-19T06:57:39.645Z,12.70
2022-10-19T07:00:11.281Z,12.70
2022-10-19T07:02:39.992Z,12.72
2022-10-19T07:05:09.398Z,12.86
2022-10-19T07:07:38.218Z,12.90
2022-10-19T07:10:08.019Z,12.90
2022-10-19T07:12:36.770Z,12.94
2022-10-19T07:15:07.023Z,13.00
2022-10-19T07:17:35.715Z,13.00
2022-10-19T07:20:06.425Z,13.10
2022-10-19T07:22:35.106Z,13.20
2022-10-19T07:25:04.214Z,13.20
2022-10-19T07:27:37.739Z,13.30
2022-10-19T07:30:09.131Z,13.30
2022-10-19T07:32:37.735Z,13.48
2022-10-19T07:35:07.446Z,13.60
2022-10-19T07:37:36.145Z,13.80
2022-10-19T07:40:05.830Z,13.92
2022-10-19T07:42:38.029Z,14.10
2022-10-19T07:45:08.367Z,14.20
2022-10-19T07:47:36.782Z,14.30
2022-10-19T07:50:06.215Z,14.30
2022-10-19T07:52:36.852Z,14.20
2022-10-19T07:55:06.843Z,14.10
2022-10-19T07:57:35.456Z,14.10
2022-10-19T08:00:05.332Z,14.10
2022-10-19T08:02:59.807Z,14.00
2022-10-19T08:05:33.678Z,14.12
2022-10-19T08:08:08.921Z,14.30
2022-10-19T08:10:42.550Z,14.40
2022-10-19T08:13:11.840Z,14.50
2022-10-19T08:15:40.439Z,14.60
2022-10-19T08:18:08.938Z,14.60
2022-10-19T08:20:37.222Z,14.56
2022-10-19T08:23:06.574Z,14.60
2022-10-19T08:25:35.081Z,14.60
2022-10-19T08:28:03.669Z,14.60
2022-10-19T08:30:33.558Z,14.70
2022-10-19T08:33:03.861Z,14.70
2022-10-19T08:35:33.528Z,14.80
2022-10-19T08:38:02.852Z,14.80
2022-10-19T08:40:31.740Z,14.70
2022-10-19T08:43:05.219Z,14.64
2022-10-19T08:45:42.666Z,14.70
2022-10-19T08:48:27.271Z,14.70
2022-10-19T08:50:57.987Z,14.74
2022-10-19T08:53:35.546Z,14.80
2022-10-19T08:56:26.992Z,14.80
2022-10-19T08:59:13.729Z,14.72
2022-10-19T09:01:48.251Z,14.80
2022-10-19T09:04:22.867Z,14.90
2022-10-19T09:07:01.395Z,15.10
2022-10-19T09:09:32.020Z,15.30
2022-10-19T09:12:05.525Z,15.40
2022-10-19T09:14:40.664Z,15.48
2022-10-19T09:17:14.379Z,15.40
2022-10-19T09:19:47.268Z,15.50
2022-10-19T09:22:21.303Z,15.56
2022-10-19T09:24:52.322Z,15.70
2022-10-19T09:27:23.743Z,15.90
2022-10-19T09:29:56.526Z,16.10
2022-10-19T09:32:32.464Z,16.10
2022-10-19T09:35:03.966Z,16.10
2022-10-19T09:37:38.063Z,16.10
2022-10-19T09:40:11.717Z,16.06
2022-10-19T09:42:40.444Z,16.02
2022-10-19T09:45:25.811Z,16.08
2022-10-19T09:47:54.207Z,16.00
2022-10-19T09:50:24.897Z,16.00
2022-10-19T09:52:55.117Z,15.80
2022-10-19T09:55:28.718Z,15.90
2022-10-19T09:58:02.261Z,15.90
2022-10-19T10:00:36.850Z,15.90
2022-10-19T10:03:06.943Z,15.90
2022-10-19T10:05:37.446Z,15.90
2022-10-19T10:08:14.198Z,16.00
2022-10-19T10:10:46.875Z,16.10
2022-10-19T10:13:27.486Z,16.28
2022-10-19T10:16:00.187Z,16.42
2022-10-19T10:18:30.143Z,16.60
2022-10-19T10:21:06.952Z,16.78
2022-10-19T10:23:36.998Z,16.80
2022-10-19T10:26:15.651Z,16.80
2022-10-19T10:28:51.100Z,16.82
2022-10-19T10:31:24.807Z,16.90
2022-10-19T10:34:22.503Z,16.90
2022-10-19T10:36:59.252Z,16.90
2022-10-19T10:39:28.872Z,16.88
2022-10-19T10:42:06.733Z,16.80
2022-10-19T10:44:36.222Z,16.70
2022-10-19T10:47:13.172Z,16.70
2022-10-19T10:49:42.672Z,16.70
2022-10-19T10:52:14.697Z,16.70
2022-10-19T10:54:59.491Z,16.70
2022-10-19T10:57:32.773Z,16.70
2022-10-19T11:00:07.774Z,16.74
2022-10-19T11:02:45.811Z,16.60
2022-10-19T11:05:20.040Z,16.50
2022-10-19T11:07:53.237Z,16.40
2022-10-19T11:10:28.296Z,16.30
2022-10-19T11:13:18.834Z,16.18
2022-10-19T11:15:56.547Z,16.10
2022-10-19T11:18:29.965Z,16.10
2022-10-19T11:21:05.873Z,16.02
2022-10-19T11:23:51.831Z,16.00
2022-10-19T11:26:32.887Z,15.90
2022-10-19T11:29:17.132Z,15.78
2022-10-19T11:31:50.526Z,15.70
2022-10-19T11:34:36.444Z,15.80
2022-10-19T11:37:16.173Z,15.80
2022-10-19T11:39:58.371Z,15.70
2022-10-19T11:42:42.791Z,15.58
2022-10-19T11:45:21.724Z,15.40
2022-10-19T11:48:06.594Z,15.30
2022-10-19T11:50:49.731Z,15.20
2022-10-19T11:53:35.099Z,15.00
2022-10-19T11:56:09.114Z,15.00
2022-10-19T11:58:59.664Z,15.00
2022-10-19T12:01:39.837Z,15.00
2022-10-19T12:04:50.619Z,15.20
2022-10-19T12:07:35.468Z,15.40
2022-10-19T12:10:16.627Z,15.70
2022-10-19T12:12:48.512Z,15.94
2022-10-19T12:15:23.516Z,16.00
2022-10-19T12:17:54.625Z,15.82
2022-10-19T12:20:29.653Z,15.64
2022-10-19T12:23:00.002Z,15.40
2022-10-19T12:25:28.636Z,15.20
2022-10-19T12:27:57.988Z,15.00
2022-10-19T12:30:26.594Z,14.90
2022-10-19T12:33:03.406Z,14.80
2022-10-19T12:35:52.360Z,14.90
2022-10-19T12:38:29.887Z,15.10
2022-10-19T12:41:06.054Z,15.20
2022-10-19T12:43:42.997Z,15.20
2022-10-19T12:46:21.782Z,15.20
2022-10-19T12:49:38.094Z,15.10
2022-10-19T12:52:07.736Z,15.14
2022-10-19T12:54:39.603Z,15.26
2022-10-19T12:57:23.997Z,15.30
2022-10-19T13:00:02.459Z,15.42
2022-10-19T13:02:35.454Z,15.40
2022-10-19T13:05:06.078Z,15.32
2022-10-19T13:07:36.970Z,15.20
2022-10-19T13:10:19.817Z,15.00
2022-10-19T13:12:48.840Z,14.88
2022-10-19T13:15:56.330Z,14.80
2022-10-19T13:19:07.558Z,14.80
2022-10-19T13:21:59.617Z,14.80
2022-10-19T13:24:38.367Z,14.70
2022-10-19T13:27:36.049Z,14.60
2022-10-19T13:30:26.326Z,14.60
2022-10-19T13:33:40.428Z,14.70
2022-10-19T13:36:12.893Z,14.82
2022-10-19T13:38:46.537Z,14.90
2022-10-19T13:41:21.124Z,14.90
2022-10-19T13:44:18.534Z,15.00
2022-10-19T13:47:12.329Z,15.56
2022-10-19T13:50:14.283Z,15.70
2022-10-19T13:53:20.132Z,15.70
2022-10-19T13:56:35.667Z,15.70
2022-10-19T13:59:42.442Z,15.80
2022-10-19T14:02:50.933Z,16.32
2022-10-19T14:05:43.300Z,17.30
2022-10-19T14:08:30.535Z,17.40
2022-10-19T14:11:05.907Z,17.40
2022-10-19T14:13:46.147Z,17.30
2022-10-19T14:16:46.875Z,18.50
2022-10-19T14:19:33.437Z,21.72
2022-10-19T14:22:27.750Z,20.82
2022-10-19T14:25:15.609Z,22.06
2022-10-19T14:27:45.942Z,23.66
2022-10-19T14:30:27.475Z,22.82
2022-10-19T14:33:02.242Z,21.72
2022-10-19T14:35:46.507Z,20.82
2022-10-19T14:38:35.010Z,20.10
2022-10-19T14:41:18.982Z,19.80
2022-10-19T14:43:58.949Z,19.48
2022-10-19T14:46:30.170Z,18.78
2022-10-19T14:49:02.092Z,18.16
2022-10-19T14:51:36.362Z,17.60
2022-10-19T14:54:08.007Z,17.10
2022-10-19T14:56:42.700Z,16.72
2022-10-19T14:59:22.958Z,16.40
2022-10-19T15:01:55.259Z,16.10
2022-10-19T15:04:26.437Z,15.90
2022-10-19T15:06:56.022Z,15.70
2022-10-19T15:09:37.123Z,15.52
2022-10-19T15:12:16.650Z,15.30
2022-10-19T15:14:47.090Z,15.20
2022-10-19T15:17:27.145Z,15.00
2022-10-19T15:19:58.775Z,14.80
2022-10-19T15:22:40.146Z,14.66
2022-10-19T15:25:27.579Z,14.50
2022-10-19T15:27:57.506Z,14.38
2022-10-19T15:30:36.900Z,14.20
2022-10-19T15:36:33.449Z,14.00
2022-10-19T15:39:18.165Z,14.00
2022-10-19T15:41:53.749Z,13.90
2022-10-19T15:44:33.864Z,13.80
2022-10-19T15:47:20.259Z,13.70
2022-10-19T15:49:55.324Z,13.50
2022-10-19T15:52:25.162Z,13.50
2022-10-19T15:54:55.276Z,13.40
2022-10-19T15:57:27.693Z,13.36
2022-10-19T15:59:58.345Z,13.30
2022-10-19T16:02:27.203Z,13.30
2022-10-19T16:04:55.925Z,13.30
2022-10-19T16:07:30.240Z,13.50
2022-10-19T16:09:59.628Z,13.54
2022-10-19T16:12:28.106Z,13.50
2022-10-19T16:14:56.524Z,13.40
2022-10-19T16:17:25.138Z,13.40
2022-10-19T16:19:53.953Z,13.30
2022-10-19T16:22:25.554Z,13.30
2022-10-19T16:24:54.174Z,13.28
2022-10-19T16:27:22.964Z,13.20
2022-10-19T16:29:51.675Z,13.20
2022-10-19T16:32:22.741Z,13.20
2022-10-19T16:34:53.050Z,13.20
2022-10-19T16:37:22.124Z,13.20
2022-10-19T16:39:50.859Z,13.20
2022-10-19T16:42:21.195Z,13.20
2022-10-19T16:45:04.205Z,13.20
2022-10-19T16:47:58.903Z,13.20
2022-10-19T16:50:27.606Z,13.30
2022-10-19T16:53:06.170Z,13.40
2022-10-19T16:55:34.680Z,13.40
2022-10-19T16:58:03.235Z,13.40
2022-10-19T17:00:31.839Z,13.50
2022-10-19T17:03:00.552Z,13.50
2022-10-19T17:05:29.092Z,13.50
2022-10-19T17:07:58.892Z,13.38
2022-10-19T17:10:27.808Z,13.30
2022-10-19T17:12:56.871Z,13.20
2022-10-19T17:15:42.462Z,13.14
2022-10-19T17:18:11.667Z,13.10
2022-10-19T17:20:40.367Z,13.10
2022-10-19T17:23:08.756Z,13.00
2022-10-19T17:25:37.168Z,12.96
2022-10-19T17:28:08.195Z,12.90
2022-10-19T17:30:41.211Z,12.80
2022-10-19T17:33:09.957Z,12.80
2022-10-19T17:35:38.351Z,12.80
2022-10-19T17:38:10.075Z,12.80
2022-10-19T17:40:40.450Z,12.80
2022-10-19T17:43:25.579Z,12.70
2022-10-19T17:46:20.859Z,12.60
2022-10-19T17:48:55.059Z,12.50
2022-10-19T17:51:30.368Z,12.46
2022-10-19T17:54:01.405Z,12.38
2022-10-19T17:56:30.879Z,12.30
2022-10-19T17:59:03.007Z,12.20
2022-10-19T18:01:33.306Z,12.20
2022-10-19T18:04:02.986Z,12.20
2022-10-19T18:06:47.026Z,12.10
2022-10-19T18:09:17.666Z,12.10
2022-10-19T18:11:47.567Z,12.06
2022-10-19T18:14:41.542Z,12.00
2022-10-19T18:17:44.212Z,12.00
2022-10-19T18:20:22.533Z,12.00
2022-10-19T18:22:53.717Z,12.00
2022-10-19T18:25:42.124Z,11.94
2022-10-19T18:28:27.024Z,11.90
2022-10-19T18:30:55.780Z,11.90
2022-10-19T18:33:28.086Z,11.80
2022-10-19T18:36:00.564Z,11.80
2022-10-19T18:38:31.428Z,11.70
2022-10-19T18:41:18.483Z,11.54
2022-10-19T18:43:53.221Z,11.50
2022-10-19T18:46:25.497Z,11.40
2022-10-19T18:48:54.515Z,11.30
2022-10-19T18:51:24.711Z,11.20
2022-10-19T18:53:54.770Z,11.10
2022-10-19T18:56:35.972Z,11.00
2022-10-19T18:59:06.804Z,11.00
2022-10-19T19:01:38.763Z,10.90
2022-10-19T19:04:09.345Z,10.80
2022-10-19T19:06:39.060Z,10.78
2022-10-19T19:09:21.274Z,10.70
2022-10-19T19:12:08.209Z,10.60
2022-10-19T19:14:47.239Z,10.60
2022-10-19T19:17:17.516Z,10.58
2022-10-19T19:20:44.967Z,10.50
2022-10-19T19:24:21.224Z,10.58
2022-10-19T19:27:19.093Z,10.70
2022-10-19T19:30:04.117Z,10.70
2022-10-19T19:32:34.463Z,10.70
2022-10-19T19:35:03.079Z,10.60
2022-10-19T19:37:31.284Z,10.40
2022-10-19T19:39:59.581Z,10.30
2022-10-19T19:42:28.081Z,10.20
2022-10-19T19:44:56.520Z,10.10
2022-10-19T19:47:24.930Z,10.00
2022-10-19T19:49:53.497Z,9.90
2022-10-19T19:52:24.816Z,9.90
2022-10-19T19:54:55.471Z,9.90
2022-10-19T19:57:38.547Z,9.90
2022-10-19T20:00:10.755Z,9.80
2022-10-19T20:02:41.942Z,9.80
2022-10-19T20:05:10.964Z,9.70
2022-10-19T20:07:39.758Z,9.60
2022-10-19T20:10:09.877Z,9.50
2022-10-19T20:12:39.075Z,9.48
2022-10-19T20:15:15.045Z,9.40
2022-10-19T20:17:46.514Z,9.40
2022-10-19T20:20:17.331Z,9.30
2022-10-19T20:22:50.503Z,9.30
2022-10-19T20:25:34.099Z,9.40
2022-10-19T20:28:05.454Z,9.40
2022-10-19T20:30:34.816Z,9.40
2022-10-19T20:33:04.109Z,9.40
2022-10-19T20:35:37.508Z,9.40
2022-10-19T20:38:08.196Z,9.30
2022-10-19T20:41:10.001Z,9.20
2022-10-19T20:43:38.465Z,9.06
2022-10-19T20:46:10.181Z,9.00
2022-10-19T20:48:39.739Z,8.86
2022-10-19T20:51:13.840Z,8.72
2022-10-19T20:53:51.315Z,8.70
2022-10-19T20:56:28.801Z,8.66
2022-10-19T20:58:58.067Z,8.60
2022-10-19T21:01:27.824Z,8.60
2022-10-19T21:04:00.943Z,8.50
2022-10-19T21:06:46.637Z,8.42
2022-10-19T21:09:18.805Z,8.40
2022-10-19T21:11:49.577Z,8.48
2022-10-19T21:14:23.754Z,8.50
2022-10-19T21:16:57.167Z,8.50
2022-10-19T21:19:31.149Z,8.50
2022-10-19T21:22:01.732Z,8.48
2022-10-19T21:24:32.235Z,8.40
2022-10-19T21:27:03.329Z,8.38
2022-10-19T21:29:31.925Z,8.30
2022-10-19T21:32:00.752Z,8.20
2022-10-19T21:34:30.873Z,8.20
2022-10-19T21:37:00.177Z,8.20
2022-10-19T21:39:31.785Z,8.10
2022-10-19T21:42:02.699Z,8.20
2022-10-19T21:44:37.686Z,8.20
2022-10-19T21:47:12.936Z,8.18
2022-10-19T21:49:45.744Z,8.20
2022-10-19T21:52:20.917Z,8.30
2022-10-19T21:54:55.923Z,8.30
2022-10-19T21:57:25.619Z,8.30
2022-10-19T22:00:03.035Z,8.38
2022-10-19T22:02:44.893Z,8.34
2022-10-19T22:05:15.789Z,8.38
2022-10-19T22:07:56.477Z,8.30
2022-10-19T22:10:27.817Z,8.30
2022-10-19T22:12:56.810Z,8.30
2022-10-19T22:15:25.248Z,8.30
2022-10-19T22:17:55.741Z,8.30
2022-10-19T22:20:24.498Z,8.26
2022-10-19T22:22:54.974Z,8.20
2022-10-19T22:25:23.751Z,8.10
2022-10-19T22:27:52.062Z,8.00
2022-10-19T22:30:20.512Z,7.90
2022-10-19T22:32:48.903Z,7.90
2022-10-19T22:35:17.728Z,7.80
2022-10-19T22:37:46.247Z,7.70
2022-10-19T22:40:14.751Z,7.70
2022-10-19T22:42:43.197Z,7.60
2022-10-19T22:45:11.542Z,7.50
2022-10-19T22:47:39.942Z,7.40
2022-10-19T22:50:11.123Z,7.30
2022-10-19T22:52:39.595Z,7.20
2022-10-19T22:55:08.988Z,7.18
2022-10-19T22:57:37.450Z,7.10
2022-10-19T23:00:08.363Z,7.10
2022-10-19T23:02:37.082Z,7.10
2022-10-19T23:05:06.736Z,7.10
2022-10-19T23:07:36.826Z,7.20
2022-10-19T23:10:07.306Z,7.20
2022-10-19T23:12:35.701Z,7.28
2022-10-19T23:15:04.614Z,7.30
2022-10-19T23:17:33.208Z,7.34
2022-10-19T23:20:01.667Z,7.30
2022-10-19T23:22:29.992Z,7.30
2022-10-19T23:24:58.266Z,7.22
2022-10-19T23:27:26.661Z,7.18
2022-10-19T23:29:54.984Z,7.10
2022-10-19T23:32:23.443Z,7.00
2022-10-19T23:34:51.751Z,6.90
2022-10-19T23:37:20.076Z,6.88
2022-10-19T23:39:48.458Z,6.82
2022-10-19T23:42:16.744Z,6.80
2022-10-19T23:44:45.055Z,6.80
2022-10-19T23:47:13.513Z,6.78
2022-10-19T23:49:42.016Z,6.80
2022-10-19T23:52:10.533Z,6.80
2022-10-19T23:54:39.168Z,6.70
2022-10-19T23:57:07.729Z,6.66
2022-10-19T23:59:36.239Z,6.60
